Time;durP1;ratioP1;P1;durP2;ratioP2;P2;SDS_P1;SDS_P2;PMS_P1;PMS_P2;Temp;Humidity;BMP_temperature;BMP_pressure;BME280_temperature;BME280_humidity;BME280_pressure;Samples;Min_cycle;Max_cycle;Signal;HPM_P1;HPM_P2
2024/02/10 00:00:25;;;;;;;79.10;32.30;;;;;;;5.36;98.33;98466.02;111086;1206;99119;-71
2024/02/10 00:02:51;;;;;;;72.50;30.80;;;;;;;5.37;98.32;98463.52;110996;1212;97649;-71
2024/02/10 00:05:17;;;;;;;79.00;34.80;;;;;;;5.38;98.43;98457.44;110856;1212;138120;-71
2024/02/10 00:07:45;;;;;;;70.40;31.30;;;;;;;5.39;98.38;98457.55;111062;1210;97701;-70
2024/02/10 00:10:12;;;;;;;86.70;33.50;;;;;;;5.41;98.27;98454.09;110895;1212;140633;-70
2024/02/10 00:12:40;;;;;;;74.80;31.60;;;;;;;5.42;98.37;98457.04;110980;1210;97908;-71
2024/02/10 00:15:07;;;;;;;66.20;29.00;;;;;;;5.43;98.41;98456.09;111140;1212;97797;-70
2024/02/10 00:17:33;;;;;;;69.10;29.10;;;;;;;5.43;98.25;98452.88;110804;1212;138715;-70
2024/02/10 00:19:59;;;;;;;78.40;33.00;;;;;;;5.44;98.31;98456.00;111076;1211;97609;-70
2024/02/10 00:22:25;;;;;;;70.20;31.60;;;;;;;5.45;98.39;98457.89;110884;1206;138432;-71
2024/02/10 00:24:55;;;;;;;73.50;31.80;;;;;;;5.46;98.44;98458.55;111136;1211;97666;-71
2024/02/10 00:27:20;;;;;;;71.30;30.00;;;;;;;5.47;98.47;98454.25;110935;1211;142444;-70
2024/02/10 00:29:46;;;;;;;80.20;30.40;;;;;;;5.48;98.53;98454.22;110981;1206;97602;-70
2024/02/10 00:32:13;;;;;;;77.50;32.30;;;;;;;5.49;98.49;98458.20;111034;1210;97594;-71
2024/02/10 00:34:39;;;;;;;70.00;30.00;;;;;;;5.50;98.42;98459.75;111001;1212;140565;-70
2024/02/10 00:37:09;;;;;;;67.10;29.70;;;;;;;5.51;98.60;98453.66;111001;1212;98320;-70
2024/02/10 00:39:35;;;;;;;66.00;30.00;;;;;;;5.52;98.54;98455.39;110772;1212;140789;-70
2024/02/10 00:42:00;;;;;;;67.70;29.00;;;;;;;5.52;98.62;98459.78;111083;1212;97716;-70
2024/02/10 00:44:29;;;;;;;77.90;31.30;;;;;;;5.53;98.53;98460.77;111092;1210;99129;-70
2024/02/10 00:47:00;;;;;;;73.30;31.30;;;;;;;5.54;98.59;98460.20;110899;1206;139821;-70
2024/02/10 00:49:26;;;;;;;76.60;32.80;;;;;;;5.54;98.57;98455.96;111086;1206;97683;-70
2024/02/10 00:51:54;;;;;;;72.60;31.00;;;;;;;5.57;98.64;98457.77;110970;1209;138723;-70
2024/02/10 00:54:27;;;;;;;75.10;32.10;;;;;;;5.59;98.62;98459.41;111014;1212;97674;-70
2024/02/10 00:56:56;;;;;;;74.90;29.70;;;;;;;5.61;98.70;98457.89;111111;1208;99300;-71
2024/02/10 00:59:22;;;;;;;74.10;33.60;;;;;;;5.61;98.69;98460.86;110812;1207;139606;-70
2024/02/10 01:01:52;;;;;;;72.40;31.50;;;;;;;5.62;98.68;98460.63;110998;1207;97678;-71
2024/02/10 01:04:21;;;;;;;69.40;29.40;;;;;;;5.63;98.73;98461.48;110902;1206;138305;-70
2024/02/10 01:06:53;;;;;;;81.40;32.60;;;;;;;5.64;98.83;98456.47;111073;1212;111314;-70
2024/02/10 01:09:18;;;;;;;78.40;32.50;;;;;;;5.66;98.84;98458.50;110859;1224;138694;-70
2024/02/10 01:11:44;;;;;;;75.60;32.80;;;;;;;5.67;98.70;98457.02;111014;1210;98656;-70
2024/02/10 01:14:10;;;;;;;75.80;31.50;;;;;;;5.68;98.88;98455.34;111027;1210;97778;-71
2024/02/10 01:16:43;;;;;;;74.90;33.10;;;;;;;5.68;99.00;98453.73;110913;1208;138283;-70
2024/02/10 01:19:09;;;;;;;72.10;31.00;;;;;;;5.69;98.76;98454.21;111040;1209;98692;-71
2024/02/10 01:21:38;;;;;;;75.60;32.30;;;;;;;5.70;98.90;98459.14;110874;1206;139516;-71
2024/02/10 01:24:05;;;;;;;81.10;31.70;;;;;;;5.71;98.90;98459.08;111091;1212;97735;-70
2024/02/10 01:26:31;;;;;;;70.00;30.80;;;;;;;5.71;98.96;98460.13;111116;1210;97664;-70
2024/02/10 01:28:57;;;;;;;74.50;31.50;;;;;;;5.72;98.93;98461.85;110978;1206;140140;-70
2024/02/10 01:31:25;;;;;;;76.10;31.40;;;;;;;5.73;98.74;98462.33;110795;1209;97592;-70
2024/02/10 01:33:52;;;;;;;68.80;31.40;;;;;;;5.73;98.97;98459.82;110708;1206;139477;-70
2024/02/10 01:36:19;;;;;;;73.00;30.40;;;;;;;5.74;98.94;98456.93;110542;1209;97728;-70
2024/02/10 01:38:46;;;;;;;77.70;30.90;;;;;;;5.75;98.96;98455.10;110749;1212;98187;-70
2024/02/10 01:41:13;;;;;;;69.90;30.90;;;;;;;5.77;99.10;98454.63;110495;1212;138852;-72
2024/02/10 01:43:41;;;;;;;73.50;31.30;;;;;;;5.77;99.15;98458.36;110732;1210;98968;-70
2024/02/10 01:46:17;;;;;;;77.80;31.90;;;;;;;5.79;98.89;98459.98;111120;1210;139404;-70
2024/02/10 01:48:44;;;;;;;75.70;30.70;;;;;;;5.80;99.01;98457.81;111027;1206;97613;-70
2024/02/10 01:51:11;;;;;;;69.80;31.00;;;;;;;5.81;98.96;98456.67;111022;1210;97715;-70
2024/02/10 01:53:38;;;;;;;76.90;32.30;;;;;;;5.82;98.98;98457.86;110929;1219;138216;-71
2024/02/10 01:56:09;;;;;;;72.80;32.00;;;;;;;5.83;98.96;98454.80;111023;1206;97636;-70
2024/02/10 01:58:37;;;;;;;67.30;28.60;;;;;;;5.83;99.18;98456.36;110904;1206;138523;-70
2024/02/10 02:01:04;;;;;;;79.60;33.50;;;;;;;5.84;99.12;98452.98;110974;1210;97726;-70
2024/02/10 02:03:31;;;;;;;69.20;31.20;;;;;;;5.85;99.19;98455.38;110987;1211;139174;-70
2024/02/10 02:05:57;;;;;;;75.50;32.30;;;;;;;5.86;99.13;98459.22;111085;1210;98521;-70
2024/02/10 02:08:22;;;;;;;73.50;32.20;;;;;;;5.87;99.21;98463.45;111140;1206;97710;-70
2024/02/10 02:10:48;;;;;;;78.50;33.60;;;;;;;5.87;99.04;98461.49;110904;1206;138511;-71
2024/02/10 02:13:17;;;;;;;71.90;31.20;;;;;;;5.89;99.17;98466.00;110976;1209;97605;-71
2024/02/10 02:15:42;;;;;;;77.40;32.70;;;;;;;5.90;99.24;98466.48;110912;1212;139815;-70
2024/02/10 02:18:09;;;;;;;71.20;30.90;;;;;;;5.91;99.20;98468.76;110965;1210;97754;-71
2024/02/10 02:20:34;;;;;;;75.90;31.90;;;;;;;5.91;99.31;98474.21;111042;1210;97637;-70
2024/02/10 02:23:00;;;;;;;66.00;29.30;;;;;;;5.91;99.22;98472.98;110883;1206;139503;-71
2024/02/10 02:25:25;;;;;;;78.40;33.00;;;;;;;5.92;99.26;98470.11;110992;1212;97709;-71
2024/02/10 02:27:51;;;;;;;76.50;30.20;;;;;;;5.92;99.30;98471.14;110963;1207;139281;-70
2024/02/10 02:30:16;;;;;;;75.30;31.10;;;;;;;5.93;99.25;98470.19;110904;1212;97664;-71
2024/02/10 02:32:42;;;;;;;71.30;32.30;;;;;;;5.94;99.21;98470.70;110873;1212;97605;-71
2024/02/10 02:35:10;;;;;;;84.40;33.30;;;;;;;5.95;99.36;98468.52;110558;1210;144818;-71
2024/02/10 02:37:43;;;;;;;70.40;30.60;;;;;;;5.95;99.38;98469.89;110908;1212;97684;-70
2024/02/10 02:40:13;;;;;;;68.00;28.80;;;;;;;5.97;99.36;98473.16;110840;1211;139773;-70
2024/02/10 02:42:39;;;;;;;62.70;31.00;;;;;;;5.98;99.36;98471.70;111034;1212;111495;-70
2024/02/10 02:45:10;;;;;;;68.00;29.70;;;;;;;5.98;99.43;98467.09;110986;1212;99911;-70
2024/02/10 02:47:36;;;;;;;;;;;;;;;5.99;99.51;98467.00;110909;1212;138713;-71
2024/02/10 02:50:02;;;;;;;68.20;30.20;;;;;;;5.99;99.54;98468.60;111018;1212;97675;-71
2024/02/10 02:52:29;;;;;;;71.60;30.50;;;;;;;5.99;99.37;98465.91;110981;1210;138502;-70
2024/02/10 02:54:55;;;;;;;72.90;31.50;;;;;;;6.00;99.51;98468.52;111066;1209;99883;-70
2024/02/10 02:57:23;;;;;;;82.90;34.20;;;;;;;6.01;99.59;98467.25;110848;1218;138849;-70
2024/02/10 02:59:49;;;;;;;74.20;31.80;;;;;;;6.03;99.58;98469.77;111265;1218;97675;-68
2024/02/10 03:02:16;;;;;;;66.90;30.00;;;;;;;6.04;99.51;98474.70;111450;1206;97264;-67
2024/02/10 03:04:42;;;;;;;73.80;31.80;;;;;;;6.04;99.66;98470.41;111392;1212;138366;-68
2024/02/10 03:07:08;;;;;;;70.20;31.50;;;;;;;6.05;99.53;98473.53;111449;1211;107487;-68
2024/02/10 03:09:34;;;;;;;76.20;31.10;;;;;;;6.07;99.57;98473.97;111354;1206;139277;-68
2024/02/10 03:11:59;;;;;;;75.70;31.70;;;;;;;6.08;99.72;98475.00;111507;1207;97720;-68
2024/02/10 03:14:25;;;;;;;70.50;30.30;;;;;;;6.09;99.57;98476.33;111453;1206;97695;-68
2024/02/10 03:16:51;;;;;;;70.90;29.60;;;;;;;6.11;99.67;98473.54;111357;1206;140065;-68
2024/02/10 03:19:16;;;;;;;72.30;31.30;;;;;;;6.12;99.66;98470.81;111497;1206;97584;-68
2024/02/10 03:21:41;;;;;;;73.50;30.30;;;;;;;6.13;99.64;98471.48;111345;1212;138963;-68
2024/02/10 03:24:06;;;;;;;62.20;29.80;;;;;;;6.14;99.67;98470.52;111534;1206;98638;-68
2024/02/10 03:26:36;;;;;;;75.30;30.80;;;;;;;6.15;99.75;98469.74;111391;1206;97688;-67
2024/02/10 03:29:02;;;;;;;61.50;29.30;;;;;;;6.17;99.74;98469.81;111329;1211;138899;-68
2024/02/10 03:31:27;;;;;;;66.20;30.00;;;;;;;6.18;99.77;98469.91;111446;1209;97636;-68
2024/02/10 03:33:53;;;;;;;63.00;28.70;;;;;;;6.19;99.77;98473.58;111420;1209;139105;-68
2024/02/10 03:36:18;;;;;;;69.80;29.00;;;;;;;6.21;99.83;98476.50;111260;1206;97649;-68
2024/02/10 03:38:43;;;;;;;68.30;29.00;;;;;;;6.23;99.85;98474.11;111561;1210;97591;-67
2024/02/10 03:41:13;;;;;;;66.60;29.90;;;;;;;6.24;99.86;98478.27;111343;1207;138474;-68
2024/02/10 03:43:38;;;;;;;64.30;29.60;;;;;;;6.25;99.78;98473.63;111456;1211;107565;-68
2024/02/10 03:46:04;;;;;;;71.90;29.40;;;;;;;6.26;99.82;98474.95;111333;1219;138711;-68
2024/02/10 03:48:29;;;;;;;71.40;30.30;;;;;;;6.27;99.90;98478.80;111515;1210;97735;-68
2024/02/10 03:50:54;;;;;;;66.40;28.90;;;;;;;6.28;99.93;98479.63;111448;1206;97693;-68
2024/02/10 03:53:19;;;;;;;66.90;28.90;;;;;;;6.28;99.87;98476.25;111348;1209;138448;-68
2024/02/10 03:55:45;;;;;;;70.80;30.80;;;;;;;6.28;99.90;98479.06;111389;1210;97708;-68
2024/02/10 03:58:15;;;;;;;67.60;30.10;;;;;;;6.30;99.98;98482.87;111364;1206;140491;-68
2024/02/10 04:00:43;;;;;;;67.20;28.90;;;;;;;6.31;100.00;98482.44;111520;1212;99753;-67
2024/02/10 04:03:09;;;;;;;67.40;29.30;;;;;;;6.32;99.98;98485.20;111437;1206;107633;-68
2024/02/10 04:05:38;;;;;;;66.90;29.90;;;;;;;6.33;99.95;98486.05;111308;1206;138546;-67
2024/02/10 04:08:04;;;;;;;65.10;28.50;;;;;;;6.33;99.95;98483.90;111430;1206;97684;-68
2024/02/10 04:10:30;;;;;;;67.90;29.50;;;;;;;6.37;100.00;98488.51;111355;1209;138463;-68
2024/02/10 04:12:56;;;;;;;65.20;28.60;;;;;;;6.38;100.00;98485.58;111521;1207;97697;-68
2024/02/10 04:15:22;;;;;;;72.00;28.60;;;;;;;6.38;100.00;98482.54;111310;1210;138760;-68
2024/02/10 04:17:52;;;;;;;59.70;28.10;;;;;;;6.39;100.00;98481.63;111486;1210;97585;-68
2024/02/10 04:20:20;;;;;;;75.20;30.70;;;;;;;6.40;100.00;98481.54;111422;1206;111153;-67
2024/02/10 04:22:46;;;;;;;68.60;29.10;;;;;;;6.41;100.00;98481.16;111380;1206;138848;-67
2024/02/10 04:25:14;;;;;;;64.70;28.20;;;;;;;6.42;100.00;98479.31;111380;1206;97607;-67
2024/02/10 04:27:48;;;;;;;68.20;27.50;;;;;;;6.42;100.00;98479.09;111355;1210;139008;-68
2024/02/10 04:30:14;;;;;;;69.70;31.00;;;;;;;6.43;100.00;98478.35;111436;1210;97306;-68
2024/02/10 04:32:47;;;;;;;68.40;28.70;;;;;;;6.43;100.00;98480.45;111530;1206;97635;-68
2024/02/10 04:35:16;;;;;;;74.90;29.60;;;;;;;6.44;100.00;98478.45;111283;1210;139806;-68
2024/02/10 04:37:51;;;;;;;66.30;29.30;;;;;;;6.44;100.00;98475.42;111453;1206;97626;-68
2024/02/10 04:40:17;;;;;;;67.30;29.90;;;;;;;6.45;100.00;98475.02;111342;1209;138563;-68
2024/02/10 04:42:43;;;;;;;62.90;28.80;;;;;;;6.45;100.00;98474.83;111462;1205;97185;-68
2024/02/10 04:45:09;;;;;;;71.00;29.10;;;;;;;6.46;100.00;98472.66;111455;1210;97898;-68
2024/02/10 04:47:34;;;;;;;65.20;28.70;;;;;;;6.47;100.00;98472.77;111322;1210;138717;-68
2024/02/10 04:50:03;;;;;;;65.30;28.20;;;;;;;6.47;100.00;98472.03;111373;1209;97619;-68
2024/02/10 04:52:29;;;;;;;74.30;29.10;;;;;;;6.48;100.00;98470.42;111248;1210;138541;-68
2024/02/10 04:54:54;;;;;;;74.10;29.10;;;;;;;6.48;100.00;98472.17;111487;1210;97633;-68
2024/02/10 04:57:28;;;;;;;63.50;29.70;;;;;;;6.49;100.00;98472.27;111354;1210;139007;-70
2024/02/10 04:59:53;;;;;;;74.70;31.70;;;;;;;6.50;100.00;98468.16;111365;1212;97727;-68
2024/02/10 05:02:18;;;;;;;72.00;29.30;;;;;;;6.50;100.00;98469.19;111430;1210;98034;-68
2024/02/10 05:04:43;;;;;;;59.00;27.60;;;;;;;6.51;100.00;98466.13;111386;1206;138832;-68
2024/02/10 05:07:10;;;;;;;68.20;30.80;;;;;;;6.52;100.00;98465.18;111429;1206;97691;-68
2024/02/10 05:09:35;;;;;;;60.10;27.70;;;;;;;6.54;100.00;98466.15;111311;1209;139872;-68
2024/02/10 05:12:03;;;;;;;63.50;28.00;;;;;;;6.55;100.00;98467.84;111415;1211;97716;-71
2024/02/10 05:14:28;;;;;;;60.70;29.10;;;;;;;6.56;100.00;98469.74;110860;1206;108327;-71
2024/02/10 05:16:55;;;;;;;73.50;30.30;;;;;;;6.56;100.00;98467.95;110678;1210;138985;-71
2024/02/10 05:19:20;;;;;;;55.30;25.50;;;;;;;6.57;100.00;98465.10;110864;1209;98673;-71
2024/02/10 05:21:46;;;;;;;60.10;28.00;;;;;;;6.58;100.00;98467.88;110678;1212;138869;-70
2024/02/10 05:24:14;;;;;;;63.20;27.90;;;;;;;6.58;100.00;98467.12;111014;1208;97671;-71
2024/02/10 05:26:40;;;;;;;65.00;27.90;;;;;;;6.60;100.00;98469.15;111011;1207;97686;-71
2024/02/10 05:29:10;;;;;;;57.20;28.50;;;;;;;6.61;100.00;98467.33;110957;1206;139284;-71
2024/02/10 05:31:36;;;;;;;62.40;26.70;;;;;;;6.62;100.00;98463.70;110938;1211;100046;-71
2024/02/10 05:34:06;;;;;;;62.40;27.10;;;;;;;6.62;100.00;98466.16;111049;1208;139751;-70
2024/02/10 05:36:34;;;;;;;61.20;26.80;;;;;;;6.64;100.00;98463.56;111042;1211;98239;-72
2024/02/10 05:39:02;;;;;;;59.50;27.40;;;;;;;6.66;100.00;98467.54;110930;1206;99324;-71
2024/02/10 05:41:28;;;;;;;72.00;29.30;;;;;;;6.66;100.00;98465.73;110644;1210;144489;-71
2024/02/10 05:43:53;;;;;;;71.80;28.10;;;;;;;6.68;100.00;98464.21;110638;1206;97771;-71
2024/02/10 05:46:19;;;;;;;61.40;27.20;;;;;;;6.69;100.00;98466.28;110483;1222;140399;-71
2024/02/10 05:48:45;;;;;;;67.30;29.30;;;;;;;6.69;100.00;98458.27;110664;1208;102066;-71
2024/02/10 05:51:11;;;;;;;67.00;29.40;;;;;;;6.70;100.00;98459.24;110356;1206;103202;-70
2024/02/10 05:53:37;;;;;;;60.20;26.50;;;;;;;6.72;100.00;98463.41;110235;1212;139017;-70
2024/02/10 05:56:04;;;;;;;60.90;28.30;;;;;;;6.73;100.00;98464.24;110919;1206;97579;-70
2024/02/10 05:58:29;;;;;;;61.40;27.20;;;;;;;6.73;100.00;98460.36;110813;1211;139095;-70
2024/02/10 06:00:55;;;;;;;62.10;27.90;;;;;;;6.74;100.00;98459.02;110942;1207;97727;-70
2024/02/10 06:03:21;;;;;;;59.00;27.50;;;;;;;6.75;100.00;98456.31;110891;1217;139446;-70
2024/02/10 06:05:49;;;;;;;58.50;26.80;;;;;;;6.75;100.00;98456.65;111042;1209;97723;-70
2024/02/10 06:08:14;;;;;;;64.80;28.40;;;;;;;6.75;100.00;98454.19;110872;1211;97650;-70
2024/02/10 06:10:41;;;;;;;60.50;28.90;;;;;;;6.76;100.00;98454.13;110865;1210;138668;-70
2024/02/10 06:13:06;;;;;;;62.80;26.80;;;;;;;6.78;100.00;98454.48;111037;1210;97907;-70
2024/02/10 06:15:32;;;;;;;68.10;28.20;;;;;;;6.79;100.00;98454.60;110789;1211;140254;-70
2024/02/10 06:18:00;;;;;;;49.70;25.10;;;;;;;6.80;100.00;98454.55;110909;1206;97974;-70
2024/02/10 06:20:25;;;;;;;59.50;27.70;;;;;;;6.81;100.00;98457.00;110956;1221;97732;-70
2024/02/10 06:22:54;;;;;;;59.20;26.50;;;;;;;6.82;100.00;98457.27;110895;1210;139774;-70
2024/02/10 06:25:27;;;;;;;57.40;26.80;;;;;;;6.82;100.00;98458.30;110931;1209;98241;-71
2024/02/10 06:27:58;;;;;;;59.50;26.70;;;;;;;6.83;100.00;98459.31;110951;1206;139786;-73
2024/02/10 06:30:27;;;;;;;58.50;26.00;;;;;;;6.84;100.00;98464.77;111061;1210;111573;-70
2024/02/10 06:32:55;;;;;;;58.00;26.20;;;;;;;6.84;100.00;98464.41;110980;1210;100463;-70
2024/02/10 06:35:21;;;;;;;64.80;28.10;;;;;;;6.85;100.00;98458.86;110806;1206;139353;-70
2024/02/10 06:37:49;;;;;;;65.10;28.70;;;;;;;6.86;100.00;98456.86;110950;1212;97658;-68
2024/02/10 06:40:15;;;;;;;62.40;28.40;;;;;;;6.88;100.00;98458.89;110796;1206;138552;-71
2024/02/10 06:42:42;;;;;;;63.00;27.10;;;;;;;6.89;100.00;98463.76;111353;1210;97662;-72
2024/02/10 06:45:13;;;;;;;54.90;24.50;;;;;;;6.90;100.00;98461.95;110985;1208;97636;-70
2024/02/10 06:47:40;;;;;;;57.80;26.80;;;;;;;6.90;100.00;98464.77;110790;1206;138519;-71
2024/02/10 06:50:06;;;;;;;66.90;26.00;;;;;;;6.91;100.00;98468.08;110940;1209;97605;-70
2024/02/10 06:52:36;;;;;;;60.20;25.80;;;;;;;6.92;100.00;98471.73;110701;1212;139180;-70
2024/02/10 06:55:02;;;;;;;60.60;25.70;;;;;;;6.94;100.00;98474.12;110993;1208;100050;-69
2024/02/10 06:57:29;;;;;;;50.20;23.00;;;;;;;6.94;100.00;98478.90;110838;1206;140424;-69
2024/02/10 06:59:54;;;;;;;56.10;24.80;;;;;;;6.95;100.00;98480.43;110985;1210;97682;-69
2024/02/10 07:02:20;;;;;;;58.40;25.00;;;;;;;6.96;100.00;98475.96;110961;1206;97664;-69
2024/02/10 07:04:52;;;;;;;57.40;25.60;;;;;;;6.96;100.00;98474.14;110816;1210;138677;-68
2024/02/10 07:07:24;;;;;;;52.90;24.30;;;;;;;6.98;100.00;98478.13;110814;1210;108014;-69
2024/02/10 07:09:50;;;;;;;52.00;25.10;;;;;;;6.98;100.00;98481.27;110816;1210;138984;-69
2024/02/10 07:12:16;;;;;;;56.80;24.20;;;;;;;6.99;100.00;98479.10;110786;1207;97613;-69
2024/02/10 07:14:44;;;;;;;52.60;26.30;;;;;;;7.02;100.00;98480.35;110934;1208;97709;-69
2024/02/10 07:17:16;;;;;;;56.00;24.30;;;;;;;7.04;100.00;98482.20;113034;1207;139166;-70
2024/02/10 07:19:45;;;;;;;50.90;22.50;;;;;;;7.04;100.00;98482.14;113128;1205;95617;-70
2024/02/10 07:22:11;;;;;;;55.90;25.90;;;;;;;7.08;100.00;98481.73;112404;1209;139540;-69
2024/02/10 07:24:38;;;;;;;51.80;25.80;;;;;;;7.11;100.00;98483.16;110830;1222;97716;-69
2024/02/10 07:27:06;;;;;;;50.70;23.20;;;;;;;7.13;100.00;98485.48;110916;1223;97709;-69
2024/02/10 07:29:35;;;;;;;52.80;24.80;;;;;;;7.16;100.00;98487.08;110704;1206;138802;-69
2024/02/10 07:32:00;;;;;;;54.10;25.60;;;;;;;7.19;100.00;98486.15;110967;1210;97767;-69
2024/02/10 07:34:26;;;;;;;50.80;23.80;;;;;;;7.22;100.00;98487.77;110582;1208;138911;-70
2024/02/10 07:36:55;;;;;;;50.30;23.50;;;;;;;7.24;100.00;98485.52;111045;1210;97674;-69
2024/02/10 07:39:24;;;;;;;49.60;23.20;;;;;;;7.25;100.00;98486.88;110758;1213;108216;-69
2024/02/10 07:41:50;;;;;;;59.30;25.00;;;;;;;7.25;100.00;98488.44;110856;1223;97611;-69
2024/02/10 07:44:15;;;;;;;50.60;24.10;;;;;;;7.26;100.00;98491.75;110899;1210;97583;-69
2024/02/10 07:46:40;;;;;;;49.30;23.50;;;;;;;7.28;100.00;98499.98;110852;1210;139915;-69
2024/02/10 07:49:07;;;;;;;60.00;26.00;;;;;;;7.30;100.00;98504.47;110889;1210;99144;-69
2024/02/10 07:51:33;;;;;;;55.80;24.10;;;;;;;7.31;100.00;98504.92;110989;1210;138874;-68
2024/02/10 07:53:59;;;;;;;51.10;23.50;;;;;;;7.33;100.00;98503.94;111216;1208;97551;-68
2024/02/10 07:56:33;;;;;;;52.40;25.60;;;;;;;7.35;100.00;98505.23;112165;1207;100221;-69
2024/02/10 07:59:00;;;;;;;57.00;24.20;;;;;;;7.37;100.00;98513.30;110833;1206;139844;-69
2024/02/10 08:01:26;;;;;;;55.60;25.20;;;;;;;7.38;100.00;98511.06;110836;1210;97609;-68
2024/02/10 08:03:54;;;;;;;54.60;24.80;;;;;;;7.38;100.00;98514.77;113058;1210;139903;-68
2024/02/10 08:06:26;;;;;;;56.60;25.20;;;;;;;7.40;100.00;98517.15;111404;1209;97659;-68
2024/02/10 08:09:01;;;;;;;60.90;26.90;;;;;;;7.42;100.00;98518.64;111753;1209;99482;-68
2024/02/10 08:11:28;;;;;;;60.20;25.40;;;;;;;7.43;100.00;98515.70;110937;1222;138799;-70
2024/02/10 08:13:54;;;;;;;60.50;26.60;;;;;;;7.45;100.00;98519.50;110967;1210;97710;-70
2024/02/10 08:16:30;;;;;;;58.20;24.00;;;;;;;7.47;100.00;98525.72;110850;1209;138618;-69
2024/02/10 08:18:56;;;;;;;57.70;23.80;;;;;;;7.50;100.00;98525.23;111062;1208;111542;-69
2024/02/10 08:21:24;;;;;;;70.20;26.80;;;;;;;7.51;100.00;98532.41;111045;1219;97623;-69
2024/02/10 08:23:52;;;;;;;53.60;23.60;;;;;;;7.53;100.00;98533.55;110935;1206;138528;-68
2024/02/10 08:26:21;;;;;;;57.30;24.30;;;;;;;7.56;100.00;98542.83;110953;1211;97652;-69
2024/02/10 08:28:50;;;;;;;53.30;24.20;;;;;;;7.57;100.00;98547.86;110806;1211;138984;-69
2024/02/10 08:31:15;;;;;;;60.20;25.90;;;;;;;7.58;100.00;98555.45;110750;1210;111502;-70
2024/02/10 08:33:44;;;;;;;60.00;25.60;;;;;;;7.60;100.00;98560.48;110751;1206;139043;-69
2024/02/10 08:36:13;;;;;;;60.20;25.80;;;;;;;7.62;100.00;98559.10;110896;1211;98379;-68
2024/02/10 08:38:39;;;;;;;64.60;28.20;;;;;;;7.66;100.00;98568.10;110974;1206;97673;-67
2024/02/10 08:41:05;;;;;;;61.20;26.90;;;;;;;7.70;100.00;98571.90;110790;1210;138802;-67
2024/02/10 08:43:31;;;;;;;62.80;26.80;;;;;;;7.71;100.00;98569.70;110960;1210;97626;-68
2024/02/10 08:46:00;;;;;;;62.40;27.70;;;;;;;7.72;100.00;98571.94;110875;1222;139035;-67
2024/02/10 08:48:26;;;;;;;55.90;24.80;;;;;;;7.75;100.00;98575.70;112668;1209;95719;-68
2024/02/10 08:50:53;;;;;;;50.80;24.60;;;;;;;7.76;100.00;98574.19;111113;1206;97648;-68
2024/02/10 08:53:19;;;;;;;52.20;25.30;;;;;;;7.77;100.00;98568.95;110868;1209;138894;-69
2024/02/10 08:55:44;;;;;;;64.90;25.50;;;;;;;7.79;100.00;98568.83;111153;1211;97729;-67
2024/02/10 08:58:09;;;;;;;50.50;24.20;;;;;;;7.82;100.00;98565.40;110819;1206;138816;-67
2024/02/10 09:00:35;;;;;;;50.40;24.00;;;;;;;7.85;100.00;98567.55;110984;1211;97691;-69
2024/02/10 09:03:00;;;;;;;54.20;24.00;;;;;;;7.87;100.00;98566.30;111042;1205;97608;-71
2024/02/10 09:05:26;;;;;;;50.20;23.80;;;;;;;7.90;100.00;98567.20;110779;1210;138858;-67
2024/02/10 09:07:53;;;;;;;56.80;25.70;;;;;;;7.92;100.00;98569.02;111252;1206;97738;-70
2024/02/10 09:10:18;;;;;;;52.30;26.50;;;;;;;7.95;100.00;98567.71;111340;1206;138586;-68
2024/02/10 09:12:44;;;;;;;51.60;25.30;;;;;;;7.98;100.00;98565.91;110958;1211;97666;-69
2024/02/10 09:15:12;;;;;;;57.70;27.30;;;;;;;8.00;100.00;98554.77;111007;1206;97660;-69
2024/02/10 09:17:37;;;;;;;51.20;26.70;;;;;;;8.04;100.00;98554.70;110933;1209;138822;-69
2024/02/10 09:20:12;;;;;;;47.00;24.10;;;;;;;8.06;100.00;98551.55;111054;1211;97696;-67
2024/02/10 09:22:38;;;;;;;54.80;25.00;;;;;;;8.06;100.00;98552.20;111085;1211;139513;-66
2024/02/10 09:25:06;;;;;;;49.30;24.40;;;;;;;8.10;100.00;98558.89;111317;1210;97574;-68
2024/02/10 09:27:33;;;;;;;52.50;24.00;;;;;;;8.12;100.00;98565.88;110803;1218;138919;-69
2024/02/10 09:30:00;;;;;;;57.30;25.50;;;;;;;8.14;100.00;98571.80;110952;1212;97652;-68
2024/02/10 09:32:26;;;;;;;53.50;24.00;;;;;;;8.17;100.00;98570.73;111133;1207;97700;-69
2024/02/10 09:34:52;;;;;;;47.70;23.30;;;;;;;8.20;100.00;98569.63;110921;1210;138824;-68
2024/02/10 09:37:18;;;;;;;58.80;23.30;;;;;;;8.22;100.00;98562.90;110850;1213;97703;-68
2024/02/10 09:39:43;;;;;;;53.00;25.40;;;;;;;8.25;100.00;98556.84;110890;1209;138995;-69
2024/02/10 09:42:15;;;;;;;59.90;25.70;;;;;;;8.27;100.00;98553.49;110920;1207;98989;-68
2024/02/10 09:44:41;;;;;;;56.40;25.70;;;;;;;8.30;100.00;98552.41;111013;1209;108174;-68
2024/02/10 09:47:08;;;;;;;50.60;25.00;;;;;;;8.33;100.00;98550.09;110832;1206;138792;-68
2024/02/10 09:49:33;;;;;;;54.10;27.00;;;;;;;8.36;100.00;98547.98;110577;1208;98193;-69
2024/02/10 09:51:59;;;;;;;55.20;25.20;;;;;;;8.39;100.00;98547.20;110595;1209;139287;-69
2024/02/10 09:54:24;;;;;;;48.20;23.90;;;;;;;8.42;100.00;98554.27;110916;1206;97924;-68
2024/02/10 09:56:52;;;;;;;58.20;24.90;;;;;;;8.46;100.00;98555.11;110919;1219;97620;-68
2024/02/10 09:59:24;;;;;;;52.90;25.10;;;;;;;8.50;100.00;98561.05;110905;1211;138821;-69
2024/02/10 10:01:50;;;;;;;46.00;22.40;;;;;;;8.53;100.00;98568.33;110937;1210;111581;-70
2024/02/10 10:04:16;;;;;;;55.80;24.80;;;;;;;8.56;100.00;98575.58;110860;1207;140154;-69
2024/02/10 10:06:44;;;;;;;46.60;24.70;;;;;;;8.60;100.00;98579.78;111011;1223;97667;-68
2024/02/10 10:09:12;;;;;;;56.60;24.80;;;;;;;8.62;100.00;98585.14;110985;1210;97677;-68
2024/02/10 10:11:50;;;;;;;55.20;24.20;;;;;;;8.65;100.00;98585.98;110976;1210;139153;-69
2024/02/10 10:14:19;;;;;;;53.40;25.90;;;;;;;8.68;100.00;98578.87;111018;1220;99690;-69
2024/02/10 10:16:56;;;;;;;48.90;25.00;;;;;;;8.74;100.00;98573.11;110893;1209;139475;-71
2024/02/10 10:19:28;;;;;;;54.30;25.80;;;;;;;8.81;100.00;98576.70;110979;1210;100473;-69
2024/02/10 10:21:57;;;;;;;45.10;23.40;;;;;;;8.86;100.00;98575.46;110940;1213;139131;-68
2024/02/10 10:24:26;;;;;;;50.50;23.50;;;;;;;8.91;100.00;98572.66;110912;1210;110637;-68
2024/02/10 10:26:56;;;;;;;43.70;21.50;;;;;;;8.97;100.00;98574.40;111041;1209;100586;-69
2024/02/10 10:29:22;;;;;;;51.50;22.70;;;;;;;9.01;100.00;98574.93;110901;1219;139074;-69
2024/02/10 10:31:51;;;;;;;46.90;23.60;;;;;;;9.05;100.00;98582.02;110990;1210;97582;-70
2024/02/10 10:34:19;;;;;;;48.40;24.90;;;;;;;9.09;100.00;98585.42;110809;1211;139776;-69
2024/02/10 10:36:48;;;;;;;46.30;22.20;;;;;;;9.14;100.00;98585.30;111068;1210;112540;-69
2024/02/10 10:39:16;;;;;;;44.30;21.60;;;;;;;9.18;100.00;98586.27;110823;1207;100183;-69
2024/02/10 10:41:45;;;;;;;44.10;23.80;;;;;;;9.23;100.00;98585.52;110733;1206;139867;-69
2024/02/10 10:44:14;;;;;;;51.60;23.20;;;;;;;9.30;100.00;98591.64;110995;1206;97604;-69
2024/02/10 10:46:41;;;;;;;45.00;22.90;;;;;;;9.37;100.00;98592.52;110911;1222;138851;-68
2024/02/10 10:49:09;;;;;;;43.20;22.60;;;;;;;9.45;100.00;98595.36;110951;1206;97722;-68
2024/02/10 10:52:09;;;;;;;41.70;22.30;;;;;;;9.50;100.00;98602.84;110830;1211;138932;-69
2024/02/10 10:54:41;;;;;;;49.30;21.80;;;;;;;9.57;100.00;98607.34;110762;1211;108607;-68
2024/02/10 10:57:16;;;;;;;43.50;20.60;;;;;;;9.61;100.00;98605.06;110908;1210;97593;-69
2024/02/10 10:59:47;;;;;;;39.90;20.30;;;;;;;9.67;100.00;98603.06;110923;1208;140211;-68
2024/02/10 11:02:28;;;;;;;40.70;21.50;;;;;;;9.73;100.00;98604.91;111096;1208;111583;-69
2024/02/10 11:05:08;;;;;;;37.60;19.60;;;;;;;9.79;100.00;98607.02;110857;1210;138967;-68
2024/02/10 11:07:38;;;;;;;42.60;20.70;;;;;;;9.85;100.00;98609.78;111000;1210;108074;-68
2024/02/10 11:10:05;;;;;;;37.90;21.50;;;;;;;9.88;100.00;98605.94;110811;1210;139178;-68